This is the latest recevied weather packets stored in our database for station/object PU2ONU-13. If no packets are shown the sender has not sent any weather packets the latest 10 day(s).
| Time | Temp. | Humidity | Pressure | Rain* | Wind** | Luminosity | Snow |
|---|---|---|---|---|---|---|---|
| 1788118813 | 31.11° C | 41% | 1009 hPa | - | - | - | - |
| 1788103214 | 33.33° C | 34% | 1011 hPa | - | - | - | - |
| 1788100814 | 32.22° C | 36% | 1012 hPa | - | - | - | - |
| 1788099614 | 31.67° C | 40% | 1012 hPa | - | - | - | - |
| 1788097214 | 30.56° C | 44% | 1014 hPa | - | - | - | - |
| 1788092415 | 31.11° C | 40% | 1014 hPa | - | - | - | - |
| 1788090014 | 30.56° C | 42% | 1015 hPa | - | - | - | - |
| 1788088814 | 31.11° C | 41% | 1014 hPa | - | - | - | - |
| 1788086413 | 28.89° C | 45% | 1014 hPa | - | - | - | - |
| 1788085213 | 27.78° C | 47% | 1013 hPa | - | - | - | - |
| 1788082812 | 27.22° C | 49% | 1014 hPa | - | - | - | - |
| 1788081613 | 27.78° C | 48% | 1013 hPa | - | - | - | - |
| 1788079214 | 27.22° C | 48% | 1013 hPa | - | - | - | - |
| 1788078013 | 27.22° C | 49% | 1012 hPa | - | - | - | - |
| 1788075612 | 27.78° C | 48% | 1012 hPa | - | - | - | - |
| 1788074413 | 27.78° C | 48% | 1011 hPa | - | - | - | - |
| 1788007213 | 28.89° C | 44% | 1014 hPa | - | - | - | - |
| 1788006014 | 28.33° C | 46% | 1013 hPa | - | - | - | - |
| 1788003613 | 30° C | 43% | 1013 hPa | - | - | - | - |
| 1788002414 | 30° C | 42% | 1013 hPa | - | - | - | - |
| 1788000013 | 27.78° C | 46% | 1013 hPa | - | - | - | - |
| 1787998814 | 27.22° C | 47% | 1013 hPa | - | - | - | - |
| 1787996414 | 26.11° C | 49% | 1013 hPa | - | - | - | - |
| 1787995219 | 27.22° C | 45% | 1012 hPa | - | - | - | - |
| 1787992813 | 26.67° C | 47% | 1012 hPa | - | - | - | - |
* Rain since midnight (hover to see other rain measurements)
** Current wind speed in m/s (hover to see current wind gust speed)